Ellerslie, Maryland
Current Conditions -  °F | °C
As of 1:22 PM on Monday 22 Dec 2014 (Local Time) from KCBE Reporting Station
Overcast Overcast  
Wind Chill:   Ceiling: 3100
Heat Index:   Visibility: 7mi
Dew Point: -3°   Wind: 0mph
Humidity: 75%   Direction: NA
Pressure: 30.22"   Gusts: NA
Location:  39.72°N, 78.77°W
Report Text: KCBE 221822Z AUTO 00000KT 7SM OVC031 01/M03 A3022 RMK AO1
Loading
Personal Weather Stations






























Interactive Weather Map New forecast layout! Learn more

10-Day Weather Forecast

Advertisements
Track Severe Weather on mobile